createdAt,value
2023-05-05T00:00:18.587Z,26.17
2023-05-05T00:01:03.715Z,26.18
2023-05-05T00:02:03.615Z,26.10
2023-05-05T00:03:03.537Z,26.08
2023-05-05T00:04:03.357Z,26.15
2023-05-05T00:05:03.249Z,26.14
2023-05-05T00:06:03.068Z,26.14
2023-05-05T00:07:02.918Z,26.15
2023-05-05T00:08:02.772Z,26.17
2023-05-05T00:09:02.641Z,26.12
2023-05-05T00:10:02.515Z,26.14
2023-05-05T00:11:02.375Z,26.14
2023-05-05T00:12:02.308Z,26.02
2023-05-05T00:13:02.131Z,26.15
2023-05-05T00:14:01.980Z,26.16
2023-05-05T00:15:08.400Z,26.16
2023-05-05T00:16:01.697Z,26.17
2023-05-05T00:17:01.620Z,26.16
2023-05-05T00:18:01.511Z,26.18
2023-05-05T00:19:01.339Z,26.17
2023-05-05T00:20:01.151Z,26.15
2023-05-05T00:21:01.077Z,26.09
2023-05-05T00:22:00.881Z,26.15
2023-05-05T00:23:00.761Z,26.15
2023-05-05T00:24:00.611Z,26.14
2023-05-05T00:25:00.480Z,26.11
2023-05-05T00:26:00.336Z,26.11
2023-05-05T00:27:00.217Z,26.11
2023-05-05T00:28:00.095Z,26.17
2023-05-05T00:28:59.989Z,26.08
2023-05-05T00:29:59.808Z,26.16
2023-05-05T00:30:59.694Z,26.15
2023-05-05T00:31:59.558Z,26.10
2023-05-05T00:32:59.390Z,26.14
2023-05-05T00:33:59.244Z,26.16
2023-05-05T00:34:59.105Z,26.11
2023-05-05T00:35:58.977Z,26.15
2023-05-05T00:36:58.847Z,26.10
2023-05-05T00:37:58.749Z,26.12
2023-05-05T00:38:58.616Z,26.15
2023-05-05T00:39:58.431Z,26.10
2023-05-05T00:40:58.319Z,26.17
2023-05-05T00:41:58.175Z,26.15
2023-05-05T00:42:58.033Z,26.06
2023-05-05T00:43:57.895Z,26.06
2023-05-05T00:44:57.749Z,26.10
2023-05-05T00:45:57.623Z,26.13
2023-05-05T00:46:57.487Z,26.06
2023-05-05T00:47:57.365Z,26.16
2023-05-05T00:48:57.236Z,26.14
2023-05-05T00:49:57.053Z,26.13
2023-05-05T00:50:56.940Z,26.11
2023-05-05T00:51:56.821Z,26.16
2023-05-05T00:52:56.725Z,26.10
2023-05-05T00:53:56.585Z,26.04
2023-05-05T00:54:56.480Z,26.06
2023-05-05T00:55:56.415Z,25.99
2023-05-05T00:56:56.278Z,26.14
2023-05-05T00:57:56.194Z,26.17
2023-05-05T00:58:56.071Z,26.18
2023-05-05T00:59:55.943Z,26.18
2023-05-05T01:00:55.844Z,26.13
2023-05-05T01:01:55.769Z,26.21
2023-05-05T01:02:55.815Z,26.13
2023-05-05T01:03:55.552Z,26.13
2023-05-05T01:04:55.435Z,26.08
2023-05-05T01:05:55.349Z,26.13
2023-05-05T01:06:55.172Z,26.12
2023-05-05T01:07:55.082Z,26.17
2023-05-05T01:08:54.966Z,26.15
2023-05-05T01:10:04.465Z,26.22
2023-05-05T01:10:55.724Z,26.28
2023-05-05T01:11:54.564Z,26.16
2023-05-05T01:12:54.449Z,26.10
2023-05-05T01:13:54.306Z,26.18
2023-05-05T01:14:54.167Z,26.18
2023-05-05T01:15:54.075Z,26.04
2023-05-05T01:16:53.917Z,26.12
2023-05-05T01:17:53.842Z,26.07
2023-05-05T01:18:53.686Z,26.12
2023-05-05T01:19:53.551Z,26.14
2023-05-05T01:20:53.449Z,26.17
2023-05-05T01:21:53.299Z,26.19
2023-05-05T01:22:53.184Z,26.23
2023-05-05T01:23:53.063Z,26.16
2023-05-05T01:24:52.904Z,26.10
2023-05-05T01:25:52.797Z,26.20
2023-05-05T01:26:52.673Z,26.16
2023-05-05T01:27:52.539Z,26.12
2023-05-05T01:28:52.415Z,26.21
2023-05-05T01:29:52.272Z,26.23
2023-05-05T01:30:52.133Z,26.08
2023-05-05T01:31:52.128Z,26.06
2023-05-05T01:32:51.897Z,26.14
2023-05-05T01:33:51.760Z,26.25
2023-05-05T01:34:51.662Z,26.21
2023-05-05T01:35:51.549Z,26.23
2023-05-05T01:36:51.460Z,26.20
2023-05-05T01:37:51.392Z,26.22
2023-05-05T01:38:51.230Z,26.18
2023-05-05T01:39:51.107Z,26.23
2023-05-05T01:40:51.009Z,26.20
2023-05-05T01:41:50.931Z,26.23
2023-05-05T01:42:50.799Z,26.17
2023-05-05T01:43:50.686Z,26.22
2023-05-05T01:44:50.590Z,26.18
2023-05-05T01:45:50.510Z,26.13
2023-05-05T01:46:50.381Z,26.14
2023-05-05T01:47:50.320Z,26.19
2023-05-05T01:48:50.169Z,26.15
2023-05-05T01:49:50.071Z,26.17
2023-05-05T01:50:49.921Z,26.16
2023-05-05T01:51:49.842Z,26.14
2023-05-05T01:52:49.716Z,26.13
2023-05-05T01:53:49.628Z,26.10
2023-05-05T01:54:49.511Z,26.19
2023-05-05T01:55:49.412Z,26.23
2023-05-05T01:56:49.307Z,26.25
2023-05-05T01:57:49.178Z,26.16
2023-05-05T01:58:49.083Z,26.23
2023-05-05T01:59:48.984Z,26.15
2023-05-05T02:00:48.880Z,26.16
2023-05-05T02:01:48.763Z,26.19
2023-05-05T02:02:48.708Z,26.09
2023-05-05T02:03:48.546Z,26.20
2023-05-05T02:04:48.503Z,26.12
2023-05-05T02:05:48.352Z,26.17
2023-05-05T02:06:48.230Z,26.08
2023-05-05T02:07:48.140Z,26.13
2023-05-05T02:08:48.001Z,26.20
2023-05-05T02:09:47.900Z,26.19
2023-05-05T02:10:47.803Z,26.13
2023-05-05T02:11:47.705Z,26.15
2023-05-05T02:12:47.687Z,26.07
2023-05-05T02:13:47.576Z,26.16
2023-05-05T02:14:47.416Z,26.18
2023-05-05T02:15:47.317Z,26.17
2023-05-05T02:16:47.190Z,26.22
2023-05-05T02:17:47.164Z,26.23
2023-05-05T02:18:47.021Z,26.22
2023-05-05T02:19:46.900Z,26.12
2023-05-05T02:20:46.783Z,26.21
2023-05-05T02:21:46.671Z,26.23
2023-05-05T02:22:46.602Z,26.17
2023-05-05T02:23:46.466Z,26.20
2023-05-05T02:24:46.377Z,26.25
2023-05-05T02:25:46.257Z,26.22
2023-05-05T02:26:46.166Z,26.20
2023-05-05T02:27:46.053Z,26.25
2023-05-05T02:28:45.944Z,26.26
2023-05-05T02:29:45.855Z,26.24
2023-05-05T02:30:45.743Z,26.26
2023-05-05T02:31:45.705Z,26.18
2023-05-05T02:32:45.535Z,26.20
2023-05-05T02:33:45.429Z,26.26
2023-05-05T02:34:45.347Z,26.21
2023-05-05T02:35:45.210Z,26.27
2023-05-05T02:36:45.115Z,26.21
2023-05-05T02:37:45.012Z,26.25
2023-05-05T02:38:44.896Z,26.28
2023-05-05T02:39:44.782Z,26.17
2023-05-05T02:40:44.688Z,26.18
2023-05-05T02:41:44.583Z,26.18
2023-05-05T02:42:44.551Z,26.17
2023-05-05T02:43:44.362Z,26.19
2023-05-05T02:44:44.258Z,26.14
2023-05-05T02:45:44.165Z,26.26
2023-05-05T02:46:44.092Z,26.25
2023-05-05T02:47:43.978Z,26.25
2023-05-05T02:48:43.808Z,26.25
2023-05-05T02:49:43.703Z,26.20
2023-05-05T02:50:43.570Z,26.23
2023-05-05T02:51:43.470Z,26.27
2023-05-05T02:52:43.337Z,26.18
2023-05-05T02:53:43.255Z,26.22
2023-05-05T02:54:43.104Z,26.28
2023-05-05T02:55:43.023Z,26.27
2023-05-05T02:56:42.863Z,26.23
2023-05-05T02:57:42.734Z,26.17
2023-05-05T02:58:42.603Z,26.27
2023-05-05T02:59:42.471Z,26.20
2023-05-05T03:00:42.343Z,26.25
2023-05-05T03:01:42.226Z,26.21
2023-05-05T03:02:42.191Z,26.28
2023-05-05T03:03:42.064Z,26.26
2023-05-05T03:04:41.836Z,26.15
2023-05-05T03:05:41.728Z,26.25
2023-05-05T03:06:41.592Z,26.25
2023-05-05T03:07:41.467Z,26.30
2023-05-05T03:08:41.326Z,26.31
2023-05-05T03:09:41.220Z,26.27
2023-05-05T03:10:41.091Z,26.26
2023-05-05T03:11:40.948Z,26.25
2023-05-05T03:12:40.857Z,26.24
2023-05-05T03:13:40.678Z,26.29
2023-05-05T03:14:40.559Z,26.19
2023-05-05T03:15:40.403Z,26.22
2023-05-05T03:16:40.357Z,26.20
2023-05-05T03:17:40.270Z,26.31
2023-05-05T03:18:40.054Z,26.26
2023-05-05T03:19:39.933Z,26.29
2023-05-05T03:20:39.831Z,26.21
2023-05-05T03:21:39.737Z,26.29
2023-05-05T03:22:39.643Z,26.29
2023-05-05T03:23:39.523Z,26.26
2023-05-05T03:24:39.415Z,26.28
2023-05-05T03:25:39.291Z,26.31
2023-05-05T03:26:39.193Z,26.24
2023-05-05T03:27:39.100Z,26.31
2023-05-05T03:28:38.990Z,26.32
2023-05-05T03:29:38.891Z,26.35
2023-05-05T03:30:38.854Z,26.23
2023-05-05T03:31:38.717Z,26.19
2023-05-05T03:32:38.638Z,26.24
2023-05-05T03:33:38.462Z,26.22
2023-05-05T03:34:38.350Z,26.24
2023-05-05T03:35:38.263Z,26.19
2023-05-05T03:36:38.158Z,26.28
2023-05-05T03:37:38.051Z,26.26
2023-05-05T03:38:37.952Z,26.30
2023-05-05T03:39:37.860Z,26.27
2023-05-05T03:40:44.168Z,26.34
2023-05-05T03:41:38.604Z,26.26
2023-05-05T03:42:37.512Z,26.25
2023-05-05T03:43:37.345Z,26.28
2023-05-05T03:44:37.214Z,26.34
2023-05-05T03:45:37.103Z,26.37
2023-05-05T03:46:36.947Z,26.32
2023-05-05T03:47:36.840Z,26.33
2023-05-05T03:48:36.685Z,26.33
2023-05-05T03:49:36.544Z,26.22
2023-05-05T03:50:36.444Z,26.28
2023-05-05T03:51:36.284Z,26.28
2023-05-05T03:52:36.154Z,26.19
2023-05-05T03:53:36.036Z,26.30
2023-05-05T03:54:35.887Z,26.27
2023-05-05T03:55:35.765Z,26.24
2023-05-05T03:56:35.634Z,26.24
2023-05-05T03:57:35.524Z,26.17
2023-05-05T03:58:35.459Z,26.29
2023-05-05T03:59:35.287Z,26.29
2023-05-05T04:00:35.228Z,26.24
2023-05-05T04:01:35.086Z,26.26
2023-05-05T04:02:35.089Z,26.27
2023-05-05T04:03:34.942Z,26.29
2023-05-05T04:04:34.891Z,26.30
2023-05-05T04:05:34.728Z,26.31
2023-05-05T04:06:34.589Z,26.26
2023-05-05T04:07:34.453Z,26.20
2023-05-05T04:08:34.364Z,26.19
2023-05-05T04:09:34.254Z,26.25
2023-05-05T04:10:34.148Z,26.23
2023-05-05T04:11:34.045Z,26.15
2023-05-05T04:12:34.009Z,26.31
2023-05-05T04:13:33.860Z,26.22
2023-05-05T04:14:33.746Z,26.27
2023-05-05T04:15:33.681Z,26.27
2023-05-05T04:16:33.562Z,26.26
2023-05-05T04:17:33.401Z,26.29
2023-05-05T04:18:33.243Z,26.28
2023-05-05T04:19:33.129Z,26.30
2023-05-05T04:20:32.976Z,26.28
2023-05-05T04:21:32.811Z,26.23
2023-05-05T04:22:32.702Z,26.27
2023-05-05T04:23:32.562Z,26.29
2023-05-05T04:24:32.462Z,26.26
2023-05-05T04:25:32.276Z,26.26
2023-05-05T04:26:32.131Z,26.31
2023-05-05T04:27:31.998Z,26.31
2023-05-05T04:28:31.859Z,26.24
2023-05-05T04:29:31.720Z,26.27
2023-05-05T04:30:31.568Z,26.30
2023-05-05T04:31:31.495Z,26.17
2023-05-05T04:32:31.338Z,26.29
2023-05-05T04:33:31.254Z,26.29
2023-05-05T04:34:31.124Z,26.16
2023-05-05T04:35:31.032Z,26.22
2023-05-05T04:36:30.916Z,26.24
2023-05-05T04:37:30.789Z,26.23
2023-05-05T04:38:30.748Z,26.17
2023-05-05T04:39:30.594Z,26.26
2023-05-05T04:40:30.521Z,26.27
2023-05-05T04:41:30.383Z,26.15
2023-05-05T04:42:30.289Z,26.29
2023-05-05T04:43:30.179Z,26.29
2023-05-05T04:44:30.110Z,26.21
2023-05-05T04:45:29.979Z,26.26
2023-05-05T04:46:29.866Z,26.18
2023-05-05T04:47:29.778Z,26.28
2023-05-05T04:48:29.697Z,26.20
2023-05-05T04:49:29.539Z,26.19
2023-05-05T04:50:29.458Z,26.29
2023-05-05T04:51:29.338Z,26.31
2023-05-05T04:52:29.240Z,26.25
2023-05-05T04:53:29.142Z,26.29
2023-05-05T04:54:29.010Z,26.26
2023-05-05T04:55:28.906Z,26.25
2023-05-05T04:56:28.801Z,26.24
2023-05-05T04:57:28.705Z,26.26
2023-05-05T04:58:28.651Z,26.23
2023-05-05T04:59:28.513Z,26.30
2023-05-05T05:00:28.401Z,26.27
2023-05-05T05:01:28.289Z,26.32
2023-05-05T05:02:28.318Z,26.37
2023-05-05T05:03:28.110Z,26.29
2023-05-05T05:04:27.969Z,26.29
2023-05-05T05:05:27.863Z,26.31
2023-05-05T05:06:27.767Z,26.35
2023-05-05T05:07:27.745Z,26.33
2023-05-05T05:08:27.574Z,26.29
2023-05-05T05:09:27.450Z,26.29
2023-05-05T05:10:27.330Z,26.30
2023-05-05T05:11:27.227Z,26.24
2023-05-05T05:12:27.138Z,26.25
2023-05-05T05:13:27.072Z,26.29
2023-05-05T05:14:26.904Z,26.30
2023-05-05T05:15:26.792Z,26.32
2023-05-05T05:16:26.724Z,26.27
2023-05-05T05:17:26.606Z,26.34
2023-05-05T05:18:26.510Z,26.28
2023-05-05T05:19:26.412Z,26.33
2023-05-05T05:20:26.266Z,26.33
2023-05-05T05:21:26.153Z,26.34
2023-05-05T05:22:26.027Z,26.27
2023-05-05T05:23:25.918Z,26.34
2023-05-05T05:24:25.820Z,26.31
2023-05-05T05:25:25.655Z,26.32
2023-05-05T05:26:25.593Z,26.33
2023-05-05T05:27:25.388Z,26.37
2023-05-05T05:28:25.249Z,26.35
2023-05-05T05:29:25.119Z,26.30
2023-05-05T05:30:25.006Z,26.31
2023-05-05T05:31:24.917Z,26.36
2023-05-05T05:32:24.761Z,26.36
2023-05-05T05:33:24.628Z,26.31
2023-05-05T05:34:24.476Z,26.61
2023-05-05T05:35:24.374Z,26.76
2023-05-05T05:36:24.196Z,27.31
2023-05-05T05:37:24.099Z,27.85
2023-05-05T05:38:23.978Z,28.18
2023-05-05T05:39:23.835Z,28.72
2023-05-05T05:40:23.642Z,29.14
2023-05-05T05:41:23.561Z,28.89
2023-05-05T05:42:23.395Z,28.96
2023-05-05T05:43:23.220Z,29.54
2023-05-05T05:44:23.087Z,29.55
2023-05-05T05:45:22.965Z,29.71
2023-05-05T05:46:22.901Z,29.76
2023-05-05T05:47:22.685Z,30.12
2023-05-05T05:48:22.555Z,30.18
2023-05-05T05:49:22.423Z,30.20
2023-05-05T05:50:22.469Z,30.29
2023-05-05T05:51:22.212Z,30.24
2023-05-05T05:52:22.011Z,30.32
2023-05-05T05:53:21.979Z,30.25
2023-05-05T05:54:21.741Z,30.18
2023-05-05T05:55:21.672Z,30.15
2023-05-05T05:56:21.467Z,29.96
2023-05-05T05:57:21.349Z,29.97
2023-05-05T05:58:21.207Z,29.74
2023-05-05T05:59:21.083Z,29.78
2023-05-05T06:00:21.044Z,29.84
2023-05-05T06:01:20.770Z,29.63
2023-05-05T06:02:20.710Z,29.53
2023-05-05T06:03:20.668Z,29.26
2023-05-05T06:04:20.472Z,29.09
2023-05-05T06:05:20.233Z,29.14
2023-05-05T06:06:20.087Z,29.04
2023-05-05T06:07:19.983Z,29.04
2023-05-05T06:08:19.854Z,29.06
2023-05-05T06:09:20.569Z,29.10
2023-05-05T06:10:27.868Z,28.99
2023-05-05T06:11:20.405Z,29.06
2023-05-05T06:12:19.276Z,29.20
2023-05-05T06:13:19.140Z,29.32
2023-05-05T06:14:20.142Z,29.45
2023-05-05T06:15:19.145Z,29.69
2023-05-05T06:16:19.140Z,29.84
2023-05-05T06:17:18.833Z,30.06
2023-05-05T06:18:18.843Z,30.23
2023-05-05T06:19:19.064Z,30.39
2023-05-05T06:20:18.472Z,30.47
2023-05-05T06:21:18.409Z,30.48
2023-05-05T06:22:18.190Z,30.65
2023-05-05T06:23:18.096Z,30.81
2023-05-05T06:24:17.922Z,30.96
2023-05-05T06:25:17.833Z,31.07
2023-05-05T06:26:17.690Z,31.30
2023-05-05T06:27:17.578Z,31.30
2023-05-05T06:28:17.470Z,31.31
2023-05-05T06:29:17.324Z,31.20
2023-05-05T06:30:17.252Z,31.38
2023-05-05T06:31:17.158Z,31.44
2023-05-05T06:32:17.038Z,31.54
2023-05-05T06:33:16.973Z,31.66
2023-05-05T06:34:16.833Z,31.79
2023-05-05T06:35:16.697Z,31.91
2023-05-05T06:36:16.558Z,32.06
2023-05-05T06:37:17.140Z,32.09
2023-05-05T06:38:16.279Z,32.13
2023-05-05T06:39:16.296Z,32.29
2023-05-05T06:40:15.959Z,32.43
2023-05-05T06:41:15.900Z,32.42
2023-05-05T06:42:15.654Z,32.39
2023-05-05T06:43:15.562Z,32.15
2023-05-05T06:44:15.641Z,32.06
2023-05-05T06:45:15.389Z,31.84
2023-05-05T06:46:15.389Z,31.66
2023-05-05T06:47:15.407Z,31.54
2023-05-05T06:48:15.149Z,31.48
2023-05-05T06:49:15.009Z,31.31
2023-05-05T06:50:14.866Z,31.24
2023-05-05T06:51:14.676Z,31.16
2023-05-05T06:52:14.544Z,31.08
2023-05-05T06:53:14.407Z,31.04
2023-05-05T06:54:14.328Z,30.99
2023-05-05T06:55:14.166Z,30.92
2023-05-05T06:56:13.957Z,30.94
2023-05-05T06:57:13.818Z,30.82
2023-05-05T06:58:13.738Z,30.85
2023-05-05T06:59:13.783Z,30.75
2023-05-05T07:00:13.565Z,30.68
2023-05-05T07:01:13.418Z,30.61
2023-05-05T07:02:13.213Z,30.60
2023-05-05T07:03:13.178Z,30.57
2023-05-05T07:04:13.097Z,30.51
2023-05-05T07:05:12.794Z,30.46
2023-05-05T07:06:12.662Z,30.43
2023-05-05T07:07:12.523Z,30.38
2023-05-05T07:08:12.383Z,30.35
2023-05-05T07:09:12.254Z,30.33
2023-05-05T07:10:12.080Z,30.25
2023-05-05T07:11:11.950Z,30.21
2023-05-05T07:12:11.819Z,30.20
2023-05-05T07:13:11.801Z,30.18
2023-05-05T07:14:11.538Z,30.12
2023-05-05T07:15:23.797Z,30.09
2023-05-05T07:16:12.321Z,30.07
2023-05-05T07:17:11.134Z,30.03
2023-05-05T07:18:11.539Z,29.97
2023-05-05T07:19:10.863Z,29.96
2023-05-05T07:20:10.938Z,29.95
2023-05-05T07:21:10.538Z,29.91
2023-05-05T07:22:10.407Z,29.92
2023-05-05T07:23:11.089Z,29.88
2023-05-05T07:24:10.211Z,29.86
2023-05-05T07:25:10.161Z,29.82
2023-05-05T07:26:09.832Z,29.81
2023-05-05T07:27:09.694Z,29.79
2023-05-05T07:28:09.555Z,29.78
2023-05-05T07:29:09.426Z,29.82
2023-05-05T07:30:13.085Z,29.82
2023-05-05T07:31:10.178Z,29.78
2023-05-05T07:32:09.028Z,29.75
2023-05-05T07:33:08.953Z,29.75
2023-05-05T07:34:08.682Z,29.73
2023-05-05T07:35:09.122Z,29.73
2023-05-05T07:36:08.550Z,29.72
2023-05-05T07:37:08.356Z,30.18
2023-05-05T07:38:08.785Z,31.46
2023-05-05T07:39:08.209Z,31.54
2023-05-05T07:40:08.940Z,31.41
2023-05-05T07:41:08.024Z,31.37
2023-05-05T07:42:08.733Z,31.72
2023-05-05T07:43:07.842Z,32.12
2023-05-05T07:44:07.744Z,31.64
2023-05-05T07:45:07.582Z,31.44
2023-05-05T07:46:07.571Z,30.88
2023-05-05T07:47:07.445Z,30.92
2023-05-05T07:48:07.192Z,30.63
2023-05-05T07:49:07.041Z,30.37
2023-05-05T07:50:07.204Z,30.39
2023-05-05T07:52:37.097Z,30.17
2023-05-05T07:53:26.345Z,30.23
2023-05-05T07:54:25.332Z,29.90
2023-05-05T07:55:25.300Z,29.59
2023-05-05T07:56:25.339Z,29.86
2023-05-05T07:57:25.381Z,30.05
2023-05-05T07:58:25.468Z,29.88
2023-05-05T07:59:25.433Z,29.72
2023-05-05T08:00:25.274Z,29.69
2023-05-05T08:01:25.271Z,29.42
2023-05-05T08:02:25.471Z,29.06
2023-05-05T08:03:25.381Z,28.75
2023-05-05T08:04:25.225Z,28.65
2023-05-05T08:05:25.182Z,28.79
2023-05-05T08:06:25.233Z,28.48
2023-05-05T08:07:25.171Z,28.67
2023-05-05T08:08:25.329Z,28.05
2023-05-05T08:09:25.201Z,28.36
2023-05-05T08:10:25.178Z,28.40
2023-05-05T08:11:27.739Z,28.39
2023-05-05T08:12:25.132Z,27.96
2023-05-05T08:13:25.102Z,27.79
2023-05-05T08:14:25.154Z,27.71
2023-05-05T08:15:25.080Z,27.75
2023-05-05T08:16:25.102Z,27.73
2023-05-05T08:17:25.111Z,27.37
2023-05-05T08:18:25.114Z,27.22
2023-05-05T08:19:29.149Z,27.33
2023-05-05T08:20:25.047Z,27.33
2023-05-05T08:21:25.050Z,27.29
2023-05-05T08:22:25.041Z,27.48
2023-05-05T08:23:25.044Z,27.47
2023-05-05T08:24:25.144Z,27.62
2023-05-05T08:25:25.089Z,27.68
2023-05-05T08:26:25.045Z,27.69
2023-05-05T08:27:25.080Z,27.70
2023-05-05T08:28:25.003Z,27.75
2023-05-05T08:29:25.591Z,28.16
2023-05-05T08:30:24.981Z,28.67
2023-05-05T08:31:25.058Z,29.21
2023-05-05T08:32:25.919Z,29.18
2023-05-05T08:33:25.012Z,29.12
2023-05-05T08:34:25.099Z,29.94
2023-05-05T08:35:24.982Z,29.74
2023-05-05T08:36:24.955Z,29.72
2023-05-05T08:37:24.981Z,29.67
2023-05-05T08:38:25.056Z,29.41
2023-05-05T08:39:25.090Z,30.11
2023-05-05T08:40:25.099Z,30.04
2023-05-05T08:41:25.046Z,29.73
2023-05-05T08:42:36.055Z,29.24
2023-05-05T08:43:26.052Z,29.03
2023-05-05T08:44:25.004Z,28.74
2023-05-05T08:45:25.027Z,29.61
2023-05-05T08:46:25.058Z,30.03
2023-05-05T08:47:25.001Z,30.66
2023-05-05T08:48:24.936Z,30.51
2023-05-05T08:49:24.929Z,29.83
2023-05-05T08:50:25.031Z,29.91
2023-05-05T08:51:24.936Z,29.94
2023-05-05T08:52:25.048Z,30.26
2023-05-05T08:53:25.039Z,29.90
2023-05-05T08:54:25.007Z,30.22
2023-05-05T08:55:25.268Z,30.88
2023-05-05T08:56:25.532Z,30.91
2023-05-05T08:57:24.979Z,30.87
2023-05-05T08:58:26.972Z,31.34
2023-05-05T08:59:25.082Z,30.39
2023-05-05T09:00:24.913Z,29.91
2023-05-05T09:01:24.912Z,30.85
2023-05-05T09:02:25.006Z,31.18
2023-05-05T09:03:24.933Z,31.13
2023-05-05T09:04:24.830Z,31.17
2023-05-05T09:05:24.826Z,31.06
2023-05-05T09:06:24.919Z,30.94
2023-05-05T09:07:24.758Z,31.16
2023-05-05T09:08:24.757Z,31.00
2023-05-05T09:09:24.723Z,31.06
2023-05-05T09:10:24.717Z,30.96
2023-05-05T09:11:24.686Z,31.05
2023-05-05T09:12:24.658Z,31.16
2023-05-05T09:13:24.676Z,30.94
2023-05-05T09:14:24.628Z,30.92
2023-05-05T09:15:24.596Z,30.70
2023-05-05T09:16:24.678Z,30.79
2023-05-05T09:17:24.577Z,30.81
2023-05-05T09:18:24.566Z,30.70
2023-05-05T09:19:24.533Z,30.79
2023-05-05T09:20:24.502Z,30.72
2023-05-05T09:21:24.516Z,30.70
2023-05-05T09:22:24.531Z,30.83
2023-05-05T09:23:24.445Z,30.65
2023-05-05T09:24:24.443Z,30.72
2023-05-05T09:25:24.474Z,30.72
2023-05-05T09:26:24.448Z,30.75
2023-05-05T09:27:24.458Z,30.82
2023-05-05T09:28:24.483Z,30.71
2023-05-05T09:29:24.493Z,30.75
2023-05-05T09:30:24.582Z,30.82
2023-05-05T09:31:24.628Z,31.10
2023-05-05T09:32:25.159Z,31.13
2023-05-05T09:33:24.531Z,30.94
2023-05-05T09:34:24.564Z,30.94
2023-05-05T09:35:24.543Z,31.02
2023-05-05T09:36:24.543Z,31.14
2023-05-05T09:37:25.048Z,30.88
2023-05-05T09:38:24.616Z,30.76
2023-05-05T09:39:24.548Z,30.72
2023-05-05T09:40:24.600Z,30.82
2023-05-05T09:41:24.562Z,30.83
2023-05-05T09:42:24.571Z,30.92
2023-05-05T09:43:24.598Z,31.02
2023-05-05T09:44:24.637Z,30.73
2023-05-05T09:45:25.672Z,30.79
2023-05-05T09:46:24.825Z,31.78
2023-05-05T09:47:29.889Z,31.99
2023-05-05T09:48:24.577Z,31.63
2023-05-05T09:49:24.547Z,31.45
2023-05-05T09:50:24.464Z,31.30
2023-05-05T09:51:24.456Z,31.37
2023-05-05T09:52:24.392Z,32.14
2023-05-05T09:53:24.491Z,32.03
2023-05-05T09:54:24.509Z,32.07
2023-05-05T09:55:24.294Z,32.63
2023-05-05T09:56:24.299Z,33.08
2023-05-05T09:57:24.250Z,32.21
2023-05-05T09:58:24.221Z,31.89
2023-05-05T09:59:24.703Z,32.39
2023-05-05T10:00:24.102Z,31.25
2023-05-05T10:01:24.083Z,31.76
2023-05-05T10:02:24.044Z,31.32
2023-05-05T10:03:24.001Z,31.49
2023-05-05T10:04:24.054Z,31.75
2023-05-05T10:05:23.967Z,31.86
2023-05-05T10:06:23.893Z,32.02
2023-05-05T10:07:23.857Z,30.31
2023-05-05T10:08:23.811Z,30.71
2023-05-05T10:09:23.877Z,32.00
2023-05-05T10:10:23.815Z,32.95
2023-05-05T10:11:23.710Z,32.99
2023-05-05T10:12:23.675Z,33.10
2023-05-05T10:13:23.669Z,33.56
2023-05-05T10:14:23.598Z,33.47
2023-05-05T10:15:23.568Z,33.20
2023-05-05T10:16:23.637Z,33.16
2023-05-05T10:17:23.480Z,33.05
2023-05-05T10:18:23.599Z,33.00
2023-05-05T10:19:23.413Z,32.97
2023-05-05T10:20:23.378Z,33.04
2023-05-05T10:21:23.307Z,33.03
2023-05-05T10:22:23.292Z,33.04
2023-05-05T10:23:23.321Z,32.96
2023-05-05T10:24:23.201Z,32.96
2023-05-05T10:25:23.151Z,32.86
2023-05-05T10:26:23.389Z,32.91
2023-05-05T10:27:23.117Z,33.06
2023-05-05T10:28:23.128Z,33.32
2023-05-05T10:29:23.016Z,33.43
2023-05-05T10:30:22.953Z,33.40
2023-05-05T10:31:26.419Z,33.43
2023-05-05T10:32:50.259Z,33.55
2023-05-05T10:34:23.098Z,33.57
2023-05-05T10:35:23.586Z,33.53
2023-05-05T10:36:23.444Z,33.66
2023-05-05T10:37:22.700Z,33.71
2023-05-05T10:38:24.116Z,33.65
2023-05-05T10:39:22.719Z,33.49
2023-05-05T10:40:22.673Z,33.63
2023-05-05T10:41:22.536Z,33.63
2023-05-05T10:42:22.527Z,33.57
2023-05-05T10:43:22.419Z,33.35
2023-05-05T10:44:22.364Z,33.39
2023-05-05T10:45:22.368Z,33.38
2023-05-05T10:46:22.337Z,33.40
2023-05-05T10:47:22.279Z,33.32
2023-05-05T10:48:22.222Z,33.22
2023-05-05T10:49:22.266Z,33.18
2023-05-05T10:50:22.120Z,33.12
2023-05-05T10:51:35.391Z,33.06
2023-05-05T10:52:23.019Z,32.96
2023-05-05T10:53:22.061Z,32.90
2023-05-05T10:54:21.979Z,32.85
2023-05-05T10:55:21.887Z,32.73
2023-05-05T10:56:21.850Z,32.69
2023-05-05T10:57:21.774Z,32.74
2023-05-05T10:58:21.880Z,32.60
2023-05-05T10:59:21.673Z,32.46
2023-05-05T11:00:21.648Z,32.30
2023-05-05T11:01:21.629Z,32.35
2023-05-05T11:02:21.537Z,32.43
2023-05-05T11:03:21.553Z,32.34
2023-05-05T11:04:21.484Z,32.42
2023-05-05T11:05:21.422Z,32.26
2023-05-05T11:06:21.357Z,32.21
2023-05-05T11:07:21.355Z,32.16
2023-05-05T11:08:21.238Z,32.15
2023-05-05T11:09:21.191Z,32.31
2023-05-05T11:10:21.315Z,32.29
2023-05-05T11:11:21.095Z,32.43
2023-05-05T11:12:21.117Z,32.62
2023-05-05T11:13:21.247Z,32.52
2023-05-05T11:14:21.031Z,32.39
2023-05-05T11:15:20.987Z,32.93
2023-05-05T11:16:21.035Z,32.68
2023-05-05T11:17:20.980Z,32.98
2023-05-05T11:18:20.946Z,32.85
2023-05-05T11:19:20.894Z,32.73
2023-05-05T11:20:21.032Z,32.72
2023-05-05T11:21:21.614Z,32.24
2023-05-05T11:22:20.823Z,31.86
2023-05-05T11:23:20.832Z,31.72
2023-05-05T11:24:20.797Z,31.65
2023-05-05T11:25:21.172Z,31.68
2023-05-05T11:26:20.748Z,31.62
2023-05-05T11:27:20.810Z,31.55
2023-05-05T11:28:20.711Z,31.48
2023-05-05T11:29:20.808Z,31.37
2023-05-05T11:30:20.747Z,31.45
2023-05-05T11:31:20.697Z,31.32
2023-05-05T11:32:20.670Z,31.15
2023-05-05T11:33:20.682Z,30.82
2023-05-05T11:34:20.647Z,30.60
2023-05-05T11:35:20.686Z,30.49
2023-05-05T11:36:20.684Z,30.41
2023-05-05T11:37:20.680Z,30.36
2023-05-05T11:38:20.714Z,30.22
2023-05-05T11:39:20.708Z,30.21
2023-05-05T11:40:20.719Z,30.29
2023-05-05T11:41:20.686Z,30.19
2023-05-05T11:42:20.681Z,30.28
2023-05-05T11:43:20.657Z,30.32
2023-05-05T11:44:20.618Z,30.10
2023-05-05T11:45:20.607Z,30.04
2023-05-05T11:46:20.696Z,29.77
2023-05-05T11:47:20.525Z,29.74
2023-05-05T11:48:20.464Z,29.68
2023-05-05T11:49:20.457Z,29.63
2023-05-05T11:50:20.397Z,29.59
2023-05-05T11:51:20.364Z,29.54
2023-05-05T11:52:20.339Z,29.50
2023-05-05T11:53:20.390Z,29.43
2023-05-05T11:54:20.259Z,29.34
2023-05-05T11:55:20.226Z,29.33
2023-05-05T11:56:20.199Z,29.25
2023-05-05T11:57:20.164Z,29.14
2023-05-05T11:58:20.131Z,29.11
2023-05-05T11:59:20.100Z,29.00
2023-05-05T12:00:20.187Z,28.95
2023-05-05T12:01:20.141Z,28.94
2023-05-05T12:02:20.381Z,28.93
2023-05-05T12:03:20.206Z,28.88
2023-05-05T12:04:20.090Z,28.79
2023-05-05T12:05:20.180Z,28.71
2023-05-05T12:06:20.211Z,28.65
2023-05-05T12:07:20.210Z,28.62
2023-05-05T12:08:20.149Z,28.59
2023-05-05T12:09:20.120Z,28.52
2023-05-05T12:10:20.103Z,28.48
2023-05-05T12:11:20.057Z,28.46
2023-05-05T12:12:20.116Z,28.42
2023-05-05T12:13:20.440Z,28.40
2023-05-05T12:14:20.074Z,28.41
2023-05-05T12:15:20.055Z,28.38
2023-05-05T12:16:20.045Z,28.35
2023-05-05T12:17:20.005Z,28.32
2023-05-05T12:18:20.051Z,28.34
2023-05-05T12:19:19.970Z,28.34
2023-05-05T12:20:19.932Z,28.32
2023-05-05T12:21:19.896Z,28.24
2023-05-05T12:22:19.864Z,28.28
2023-05-05T12:23:19.905Z,28.21
2023-05-05T12:24:19.838Z,28.22
2023-05-05T12:25:19.850Z,28.15
2023-05-05T12:26:19.767Z,28.16
2023-05-05T12:27:19.779Z,28.13
2023-05-05T12:28:20.631Z,28.11
2023-05-05T12:29:19.709Z,28.09
2023-05-05T12:30:19.765Z,28.05
2023-05-05T12:31:19.710Z,28.01
2023-05-05T12:32:19.614Z,28.05
2023-05-05T12:33:19.612Z,28.02
2023-05-05T12:34:19.786Z,27.98
2023-05-05T12:35:20.642Z,27.94
2023-05-05T12:36:20.132Z,27.92
2023-05-05T12:37:20.146Z,27.87
2023-05-05T12:38:19.595Z,27.86
2023-05-05T12:39:20.150Z,27.83
2023-05-05T12:40:19.433Z,27.83
2023-05-05T12:41:19.371Z,27.84
2023-05-05T12:42:19.449Z,27.84
2023-05-05T12:43:19.438Z,27.78
2023-05-05T12:44:19.424Z,27.76
2023-05-05T12:45:19.493Z,27.78
2023-05-05T12:46:19.338Z,27.75
2023-05-05T12:47:21.133Z,27.70
2023-05-05T12:48:19.515Z,27.74
2023-05-05T12:49:19.288Z,27.67
2023-05-05T12:50:21.130Z,27.65
2023-05-05T12:51:19.558Z,27.68
2023-05-05T12:52:19.217Z,27.66
2023-05-05T12:53:19.052Z,27.60